Time;durP1;ratioP1;P1;durP2;ratioP2;P2;SDS_P1;SDS_P2;PMS_P1;PMS_P2;Temp;Humidity;BMP_temperature;BMP_pressure;BME280_temperature;BME280_humidity;BME280_pressure;Samples;Min_cycle;Max_cycle;Signal;HPM_P1;HPM_P2
2023/07/14 00:00:18;;;;;;;13.27;5.70;;;29.30;62.50;;;;;;6214235;23;19997;-74
2023/07/14 00:02:46;;;;;;;17.38;5.25;;;29.30;62.60;;;;;;6213887;23;19997;-75
2023/07/14 00:05:21;;;;;;;13.50;5.18;;;29.20;63.00;;;;;;6187425;23;20013;-75
2023/07/14 00:07:48;;;;;;;11.57;4.78;;;29.20;64.20;;;;;;6214130;23;20000;-75
2023/07/14 00:10:21;;;;;;;15.43;5.60;;;29.20;62.80;;;;;;6187307;23;20012;-76
2023/07/14 00:12:49;;;;;;;15.20;5.40;;;29.20;63.00;;;;;;6213879;23;20032;-74
2023/07/14 00:15:16;;;;;;;12.35;4.75;;;29.20;62.90;;;;;;6213649;23;20063;-76
2023/07/14 00:17:43;;;;;;;14.63;4.90;;;29.20;63.00;;;;;;6214858;23;20013;-75
2023/07/14 00:20:16;;;;;;;12.13;5.35;;;29.20;62.90;;;;;;6214384;23;20001;-75
2023/07/14 00:22:43;;;;;;;11.57;5.00;;;29.20;63.10;;;;;;6214240;23;20331;-75
2023/07/14 00:25:12;;;;;;;15.77;5.35;;;29.20;63.00;;;;;;6213674;23;20080;-75
2023/07/14 00:27:38;;;;;;;13.45;5.45;;;29.20;63.10;;;;;;6213865;23;20059;-75
2023/07/14 00:30:13;;;;;;;14.95;5.68;;;29.20;63.80;;;;;;6213630;23;20024;-74
2023/07/14 00:32:39;;;;;;;11.68;5.10;;;29.20;64.10;;;;;;6213540;23;20044;-74
2023/07/14 00:35:26;;;;;;;10.90;4.93;;;29.20;64.00;;;;;;6187162;23;20068;-74
2023/07/14 00:37:57;;;;;;;12.93;4.85;;;29.30;63.80;;;;;;6213825;23;20379;-74
2023/07/14 00:40:38;;;;;;;11.68;5.10;;;29.20;64.00;;;;;;6213771;23;20000;-75
2023/07/14 00:43:06;;;;;;;10.57;5.28;;;29.10;63.80;;;;;;6214366;23;20304;-74
2023/07/14 00:45:34;;;;;;;15.38;5.47;;;29.10;63.90;;;;;;6214252;23;20016;-75
2023/07/14 00:48:03;;;;;;;13.60;4.95;;;29.10;64.00;;;;;;6214355;23;20024;-75
2023/07/14 00:50:57;;;;;;;12.23;4.72;;;29.10;64.20;;;;;;6215642;23;20303;-76
2023/07/14 00:53:31;;;;;;;11.40;5.20;;;28.90;65.30;;;;;;6215896;23;20000;-74
2023/07/14 00:56:08;;;;;;;10.18;4.72;;;28.90;65.10;;;;;;6215716;23;20403;-74
2023/07/14 00:58:34;;;;;;;14.00;5.57;;;28.90;65.10;;;;;;6215746;23;20004;-75
2023/07/14 01:01:03;;;;;;;10.48;5.18;;;28.90;64.50;;;;;;6215820;23;20005;-75
2023/07/14 01:03:29;;;;;;;15.55;5.40;;;28.90;65.00;;;;;;6215524;23;20076;-75
2023/07/14 01:05:58;;;;;;;12.35;5.80;;;28.80;64.50;;;;;;6216093;23;20330;-75
2023/07/14 01:08:25;;;;;;;14.13;5.25;;;28.80;64.90;;;;;;6215853;23;19997;-76
2023/07/14 01:10:51;;;;;;;14.48;5.53;;;28.80;65.00;;;;;;6189228;23;20015;-75
2023/07/14 01:13:18;;;;;;;11.60;5.45;;;28.80;65.00;;;;;;6189181;23;20067;-75
2023/07/14 01:15:44;;;;;;;12.02;5.35;;;28.70;65.00;;;;;;6215268;23;20020;-74
2023/07/14 01:18:11;;;;;;;18.27;5.53;;;28.80;65.00;;;;;;6188839;23;20009;-75
2023/07/14 01:20:38;;;;;;;11.85;5.20;;;28.80;65.20;;;;;;6215540;23;20038;-76
2023/07/14 01:23:29;;;;;;;12.35;5.85;;;28.80;65.10;;;;;;6215694;23;20107;-74
2023/07/14 01:26:17;;;;;;;13.23;5.88;;;28.70;65.70;;;;;;6215467;23;20008;-74
2023/07/14 01:28:43;;;;;;;10.30;5.40;;;28.80;65.70;;;;;;6215554;23;20076;-76
2023/07/14 01:31:16;;;;;;;14.18;6.40;;;28.70;65.40;;;;;;6215704;23;20044;-75
2023/07/14 01:33:42;;;;;;;11.85;5.75;;;28.70;65.40;;;;;;6215330;23;20001;-74
2023/07/14 01:36:08;;;;;;;11.70;5.82;;;28.60;65.80;;;;;;6215316;23;20043;-75
2023/07/14 01:38:34;;;;;;;15.35;5.72;;;28.60;65.80;;;;;;6215333;23;20005;-74
2023/07/14 01:41:02;;;;;;;12.60;6.63;;;28.60;65.80;;;;;;6215347;23;20076;-74
2023/07/14 01:43:28;;;;;;;13.60;6.10;;;28.60;65.90;;;;;;6215186;23;20000;-74
2023/07/14 01:45:58;;;;;;;16.33;6.80;;;28.60;65.80;;;;;;6215107;23;20386;-74
2023/07/14 01:48:30;;;;;;;12.70;5.20;;;28.60;65.80;;;;;;6214829;23;20004;-76
2023/07/14 01:51:01;;;;;;;11.15;5.50;;;28.70;66.30;;;;;;6215357;23;20012;-74
2023/07/14 01:53:42;;;;;;;12.13;5.88;;;28.50;65.90;;;;;;6214886;23;20075;-74
2023/07/14 01:56:12;;;;;;;12.52;5.75;;;28.50;66.30;;;;;;6188309;23;20442;-75
2023/07/14 01:59:10;;;;;;;11.55;5.72;;;28.40;66.20;;;;;;6187991;23;20458;-74
2023/07/14 02:01:37;;;;;;;13.07;5.72;;;28.40;66.70;;;;;;6208620;23;20009;-73
2023/07/14 02:04:07;;;;;;;14.85;6.10;;;28.30;66.50;;;;;;6215139;23;20009;-75
2023/07/14 02:06:33;;;;;;;12.38;5.60;;;28.30;66.60;;;;;;6214846;23;20004;-75
2023/07/14 02:08:59;;;;;;;16.20;6.18;;;28.30;66.70;;;;;;6188199;23;20016;-74
2023/07/14 02:11:27;;;;;;;11.40;5.70;;;28.20;66.60;;;;;;6214635;23;20008;-74
2023/07/14 02:13:57;;;;;;;12.73;6.55;;;28.20;66.80;;;;;;6215127;23;20008;-74
2023/07/14 02:16:24;;;;;;;16.95;6.40;;;28.30;66.70;;;;;;6214523;23;20458;-74
2023/07/14 02:18:51;;;;;;;14.30;6.30;;;28.40;66.60;;;;;;6214809;23;20001;-74
2023/07/14 02:21:24;;;;;;;15.90;6.88;;;28.40;66.40;;;;;;6214689;23;20005;-74
2023/07/14 02:23:50;;;;;;;15.20;5.88;;;28.30;66.30;;;;;;6214719;23;20000;-74
2023/07/14 02:26:33;;;;;;;16.58;6.28;;;28.20;66.20;;;;;;6214264;23;20080;-74
2023/07/14 02:28:59;;;;;;;11.02;6.18;;;28.30;66.10;;;;;;6214471;23;20075;-73
2023/07/14 02:31:29;;;;;;;12.82;6.35;;;28.30;66.10;;;;;;6214799;23;20048;-73
2023/07/14 02:33:55;;;;;;;16.15;6.25;;;28.30;65.50;;;;;;6214843;23;20519;-74
2023/07/14 02:36:44;;;;;;;13.98;6.32;;;28.30;65.60;;;;;;6214333;23;20008;-74
2023/07/14 02:39:10;;;;;;;14.65;5.75;;;28.20;66.30;;;;;;6214149;23;20075;-74
2023/07/14 02:41:42;;;;;;;19.98;6.45;;;28.20;66.30;;;;;;6214494;23;20028;-74
2023/07/14 02:44:12;;;;;;;14.88;5.78;;;28.10;66.20;;;;;;6214791;23;20032;-74
2023/07/14 02:47:16;;;;;;;13.63;6.55;;;28.10;66.20;;;;;;6214566;23;20004;-74
2023/07/14 02:49:48;;;;;;;13.23;5.55;;;28.10;66.60;;;;;;6214761;23;20338;-74
2023/07/14 02:52:14;;;;;;;13.43;5.75;;;28.00;66.40;;;;;;6214759;23;20005;-74
2023/07/14 02:54:40;;;;;;;12.68;5.57;;;28.10;66.20;;;;;;6214509;23;20028;-73
2023/07/14 02:57:06;;;;;;;15.40;5.63;;;28.10;66.20;;;;;;6214184;23;20106;-74
2023/07/14 02:59:32;;;;;;;15.02;5.93;;;28.10;66.20;;;;;;6214485;23;20001;-73
2023/07/14 03:01:59;;;;;;;14.70;5.65;;;28.00;66.30;;;;;;6214513;23;20012;-75
2023/07/14 03:04:25;;;;;;;15.85;5.63;;;27.90;66.50;;;;;;6214398;23;19996;-75
2023/07/14 03:06:51;;;;;;;21.75;5.78;;;27.90;66.70;;;;;;6214313;23;20008;-73
2023/07/14 03:09:17;;;;;;;12.05;5.55;;;27.80;66.70;;;;;;6214397;23;20000;-74
2023/07/14 03:11:43;;;;;;;15.68;6.13;;;27.70;66.70;;;;;;6213919;23;20011;-74
2023/07/14 03:14:09;;;;;;;10.73;5.10;;;27.70;66.90;;;;;;6214343;23;20000;-75
2023/07/14 03:16:36;;;;;;;11.60;5.63;;;27.70;66.70;;;;;;6214110;23;20039;-75
2023/07/14 03:19:02;;;;;;;10.02;5.22;;;27.80;66.60;;;;;;6214181;23;20470;-75
2023/07/14 03:21:28;;;;;;;11.35;5.40;;;27.80;66.40;;;;;;6214085;23;20004;-75
2023/07/14 03:23:54;;;;;;;12.80;5.22;;;27.70;66.30;;;;;;6213759;23;20028;-74
2023/07/14 03:26:20;;;;;;;12.20;5.25;;;27.70;66.30;;;;;;6213949;23;20477;-74
2023/07/14 03:28:45;;;;;;;11.02;5.32;;;27.70;66.40;;;;;;6214030;23;20075;-74
2023/07/14 03:31:11;;;;;;;10.15;5.00;;;27.70;66.20;;;;;;6214123;23;20020;-74
2023/07/14 03:33:38;;;;;;;11.20;5.10;;;27.70;65.70;;;;;;6214200;23;20003;-74
2023/07/14 03:36:08;;;;;;;11.82;5.13;;;27.70;65.70;;;;;;6213686;23;20040;-74
2023/07/14 03:38:44;;;;;;;13.65;5.13;;;27.60;65.80;;;;;;6214020;23;20001;-74
2023/07/14 03:41:12;;;;;;;10.23;5.07;;;27.50;66.10;;;;;;6214151;23;20677;-74
2023/07/14 03:43:37;;;;;;;11.13;5.32;;;27.50;66.10;;;;;;6214061;23;20020;-75
2023/07/14 03:46:03;;;;;;;9.23;5.03;;;27.40;66.10;;;;;;6213815;23;20001;-75
2023/07/14 03:48:29;;;;;;;9.35;4.95;;;27.40;66.10;;;;;;6213996;23;20367;-75
2023/07/14 03:51:04;;;;;;;11.40;5.35;;;27.40;66.00;;;;;;6213825;23;20342;-74
2023/07/14 03:53:30;;;;;;;8.00;4.60;;;27.50;66.10;;;;;;6213826;23;20099;-74
2023/07/14 03:55:57;;;;;;;13.18;5.97;;;27.50;66.00;;;;;;6187014;23;20079;-73
2023/07/14 03:58:23;;;;;;;10.40;4.93;;;27.50;66.00;;;;;;6213650;23;20008;-75
2023/07/14 04:00:49;;;;;;;9.07;5.38;;;27.40;66.00;;;;;;6214057;23;20061;-75
2023/07/14 04:03:15;;;;;;;14.13;6.03;;;27.40;66.10;;;;;;6213936;23;20064;-75
2023/07/14 04:05:47;;;;;;;12.88;5.32;;;27.50;65.90;;;;;;6213870;23;20020;-74
2023/07/14 04:08:13;;;;;;;14.63;5.55;;;27.50;66.10;;;;;;6214314;23;20426;-74
2023/07/14 04:10:39;;;;;;;9.82;5.07;;;27.50;65.70;;;;;;6213804;23;20019;-74
2023/07/14 04:13:04;;;;;;;11.02;5.03;;;27.60;65.80;;;;;;6213540;23;20001;-74
2023/07/14 04:15:30;;;;;;;12.32;5.32;;;27.50;65.50;;;;;;6213841;23;20079;-75
2023/07/14 04:17:56;;;;;;;9.48;5.03;;;27.50;65.80;;;;;;6214306;23;20041;-76
2023/07/14 04:20:22;;;;;;;11.75;5.18;;;27.50;65.80;;;;;;6214287;23;20015;-74
2023/07/14 04:22:47;;;;;;;11.48;5.25;;;27.50;65.40;;;;;;6214321;23;20004;-75
2023/07/14 04:25:13;;;;;;;12.30;5.70;;;27.50;65.20;;;;;;6215626;23;20005;-74
2023/07/14 04:27:39;;;;;;;12.45;5.43;;;27.50;65.50;;;;;;6215517;23;20276;-74
2023/07/14 04:30:07;;;;;;;9.95;5.13;;;27.50;65.50;;;;;;6215386;23;20032;-73
2023/07/14 04:32:33;;;;;;;11.07;5.50;;;27.50;65.30;;;;;;6215010;23;20095;-74
2023/07/14 04:34:59;;;;;;;10.10;5.47;;;27.50;65.20;;;;;;6215307;23;20055;-75
2023/07/14 04:37:24;;;;;;;12.43;5.22;;;27.50;66.00;;;;;;6215584;23;20103;-75
2023/07/14 04:39:51;;;;;;;17.40;5.60;;;27.60;65.40;;;;;;6215794;23;20000;-75
2023/07/14 04:42:16;;;;;;;10.90;5.18;;;27.50;65.30;;;;;;6215904;23;20008;-75
2023/07/14 04:44:42;;;;;;;12.93;4.97;;;27.50;65.30;;;;;;6215724;23;20008;-75
2023/07/14 04:47:08;;;;;;;10.98;4.78;;;27.50;65.40;;;;;;6215677;23;19993;-77
2023/07/14 04:49:34;;;;;;;13.43;5.13;;;27.40;65.40;;;;;;6215823;23;20004;-74
2023/07/14 04:52:00;;;;;;;14.65;4.78;;;27.50;65.40;;;;;;6215352;23;20466;-75
2023/07/14 04:54:26;;;;;;;10.88;5.28;;;27.50;66.20;;;;;;6214844;23;20004;-76
2023/07/14 04:56:52;;;;;;;11.50;5.78;;;27.40;65.70;;;;;;6215194;23;20020;-75
2023/07/14 04:59:18;;;;;;;11.93;5.90;;;27.50;65.50;;;;;;6215623;23;20068;-74
2023/07/14 05:01:44;;;;;;;9.43;5.30;;;27.60;65.40;;;;;;6215875;23;20391;-75
2023/07/14 05:04:10;;;;;;;12.40;5.63;;;27.60;65.60;;;;;;6188696;23;20009;-74
2023/07/14 05:06:36;;;;;;;14.40;5.55;;;27.60;65.70;;;;;;6215383;23;20290;-75
2023/07/14 05:09:02;;;;;;;11.38;5.35;;;27.60;65.70;;;;;;6215317;23;20005;-75
2023/07/14 05:11:28;;;;;;;10.00;5.32;;;27.60;65.70;;;;;;6215271;23;20004;-75
2023/07/14 05:13:54;;;;;;;13.40;5.30;;;27.60;65.60;;;;;;6216617;23;20076;-75
2023/07/14 05:16:20;;;;;;;12.23;5.10;;;27.60;65.70;;;;;;6215655;23;20016;-75
2023/07/14 05:18:46;;;;;;;13.63;5.80;;;27.70;65.80;;;;;;6215622;23;20051;-75
2023/07/14 05:21:12;;;;;;;11.68;5.30;;;27.80;65.30;;;;;;6215568;23;20011;-75
2023/07/14 05:23:39;;;;;;;13.18;5.10;;;28.00;64.90;;;;;;6215404;23;20001;-76
2023/07/14 05:26:05;;;;;;;13.38;5.25;;;28.10;64.60;;;;;;6215824;23;20052;-76
2023/07/14 05:28:31;;;;;;;10.25;5.53;;;28.40;63.30;;;;;;6215975;23;20072;-76
2023/07/14 05:30:58;;;;;;;12.23;5.45;;;28.70;62.60;;;;;;6215589;23;20016;-76
2023/07/14 05:33:23;;;;;;;9.45;5.35;;;29.00;62.10;;;;;;6215293;23;20075;-76
2023/07/14 05:35:49;;;;;;;18.52;5.50;;;29.40;60.90;;;;;;6214475;23;20009;-75
2023/07/14 05:38:16;;;;;;;12.90;5.25;;;29.80;60.80;;;;;;6215580;23;20483;-75
2023/07/14 05:40:42;;;;;;;13.23;5.43;;;30.00;59.80;;;;;;6215223;23;20072;-77
2023/07/14 05:43:07;;;;;;;9.48;4.70;;;30.20;59.10;;;;;;6215322;23;20407;-76
2023/07/14 05:45:33;;;;;;;12.40;5.32;;;30.20;59.00;;;;;;6215187;23;20000;-75
2023/07/14 05:47:59;;;;;;;12.88;6.03;;;30.40;58.90;;;;;;6214955;23;19996;-75
2023/07/14 05:50:25;;;;;;;10.55;5.32;;;30.80;58.30;;;;;;6215133;23;20007;-76
2023/07/14 05:52:51;;;;;;;12.60;5.45;;;31.00;57.80;;;;;;6215152;23;19996;-76
2023/07/14 05:55:16;;;;;;;12.90;5.18;;;31.30;57.20;;;;;;6215013;23;20031;-75
2023/07/14 05:57:43;;;;;;;13.77;5.60;;;31.50;56.60;;;;;;6215550;23;20008;-75
2023/07/14 06:00:15;;;;;;;13.38;5.70;;;31.70;56.50;;;;;;6215702;23;20083;-76
2023/07/14 06:02:41;;;;;;;13.77;5.78;;;31.90;55.90;;;;;;6214734;23;20331;-76
2023/07/14 06:05:08;;;;;;;16.40;5.22;;;32.00;56.10;;;;;;6214743;23;20024;-75
2023/07/14 06:07:34;;;;;;;13.48;5.65;;;32.20;56.10;;;;;;6214580;23;20005;-75
2023/07/14 06:10:00;;;;;;;13.45;5.20;;;32.40;55.00;;;;;;6214668;23;20001;-75
2023/07/14 06:12:26;;;;;;;14.80;5.40;;;32.50;54.70;;;;;;6214768;23;19996;-75
2023/07/14 06:14:51;;;;;;;12.35;5.40;;;32.60;54.70;;;;;;6215219;23;20001;-76
2023/07/14 06:17:17;;;;;;;18.17;5.88;;;32.50;54.40;;;;;;6215114;23;20304;-78
2023/07/14 06:19:43;;;;;;;28.77;7.50;;;32.70;54.50;;;;;;6215263;23;20005;-77
2023/07/14 06:22:08;;;;;;;15.48;5.20;;;32.70;53.90;;;;;;6215323;23;20427;-78
2023/07/14 06:24:37;;;;;;;12.85;5.18;;;32.80;54.00;;;;;;6188264;23;20005;-75
2023/07/14 06:27:05;;;;;;;15.02;4.82;;;32.70;52.90;;;;;;6216479;23;20510;-75
2023/07/14 06:29:32;;;;;;;16.48;4.88;;;32.70;53.40;;;;;;6215781;23;20441;-76
2023/07/14 06:31:58;;;;;;;13.80;5.15;;;32.60;53.80;;;;;;6214999;23;20020;-76
2023/07/14 06:34:24;;;;;;;14.63;5.68;;;32.90;53.20;;;;;;6214918;23;20066;-75
2023/07/14 06:36:50;;;;;;;22.95;6.10;;;33.00;53.30;;;;;;6214897;23;20008;-76
2023/07/14 06:39:16;;;;;;;28.27;7.15;;;33.00;53.00;;;;;;6215459;23;20431;-77
2023/07/14 06:41:43;;;;;;;12.13;5.40;;;33.20;52.90;;;;;;6215362;23;20016;-76
2023/07/14 06:44:09;;;;;;;15.60;5.50;;;33.40;52.40;;;;;;6216255;23;19996;-76
2023/07/14 06:46:35;;;;;;;17.33;5.22;;;33.40;51.90;;;;;;6217809;23;20007;-77
2023/07/14 06:49:01;;;;;;;12.07;4.97;;;33.50;52.00;;;;;;6214832;23;20008;-75
2023/07/14 06:51:29;;;;;;;14.73;5.43;;;33.60;51.90;;;;;;6214651;23;20008;-76
2023/07/14 06:53:54;;;;;;;17.70;5.85;;;33.70;52.00;;;;;;6214711;23;20439;-75
2023/07/14 06:56:20;;;;;;;13.43;4.75;;;34.00;51.80;;;;;;6214553;23;20016;-76
2023/07/14 06:58:46;;;;;;;13.52;4.95;;;34.00;51.50;;;;;;6214332;23;20012;-77
2023/07/14 07:01:12;;;;;;;14.63;5.40;;;34.20;51.50;;;;;;6214614;23;20093;-75
2023/07/14 07:03:37;;;;;;;11.15;4.80;;;34.20;51.60;;;;;;6214481;23;20001;-75
2023/07/14 07:06:03;;;;;;;13.30;4.30;;;34.00;51.60;;;;;;6214051;23;20039;-76
2023/07/14 07:08:29;;;;;;;10.25;4.65;;;33.90;51.70;;;;;;6214174;23;19996;-75
2023/07/14 07:10:55;;;;;;;11.65;4.80;;;33.80;52.00;;;;;;6215023;23;20007;-75
2023/07/14 07:13:21;;;;;;;13.18;5.45;;;33.70;51.90;;;;;;6213889;23;20007;-75
2023/07/14 07:15:47;;;;;;;13.13;5.00;;;33.80;52.20;;;;;;6214107;23;20008;-77
2023/07/14 07:18:12;;;;;;;13.82;5.00;;;34.00;52.00;;;;;;6214450;23;20458;-75
2023/07/14 07:20:42;;;;;;;9.65;4.93;;;34.20;51.90;;;;;;6214302;23;20032;-76
2023/07/14 07:23:08;;;;;;;14.05;4.88;;;34.40;51.70;;;;;;6214255;23;19997;-76
2023/07/14 07:25:34;;;;;;;12.77;5.40;;;34.40;51.50;;;;;;6214304;23;19997;-77
2023/07/14 07:28:00;;;;;;;11.98;5.28;;;34.40;51.30;;;;;;6214227;23;20019;-77
2023/07/14 07:30:26;;;;;;;12.32;5.00;;;34.60;51.20;;;;;;6214034;23;20067;-75
2023/07/14 07:32:52;;;;;;;19.58;5.47;;;34.70;51.20;;;;;;6187416;23;20009;-76
2023/07/14 07:35:18;;;;;;;17.85;5.35;;;34.80;51.10;;;;;;6214389;23;20017;-77
2023/07/14 07:37:44;;;;;;;17.70;8.68;;;34.70;51.20;;;;;;6214878;23;20016;-76
2023/07/14 07:40:11;;;;;;;13.77;5.53;;;34.80;51.20;;;;;;6214554;23;20000;-75
2023/07/14 07:42:38;;;;;;;10.68;5.20;;;34.70;50.70;;;;;;6213023;23;20377;-75
2023/07/14 07:45:04;;;;;;;14.07;5.07;;;34.70;51.20;;;;;;6214367;23;20476;-76
2023/07/14 07:47:30;;;;;;;15.45;4.80;;;34.70;50.50;;;;;;6214786;23;20004;-75
2023/07/14 07:49:56;;;;;;;17.55;4.97;;;34.50;50.80;;;;;;6187637;23;20009;-76
2023/07/14 07:52:22;;;;;;;16.33;5.18;;;34.40;50.90;;;;;;6214493;23;20343;-76
2023/07/14 07:54:48;;;;;;;14.95;5.25;;;34.40;51.00;;;;;;6214436;23;20000;-75
2023/07/14 07:57:13;;;;;;;16.33;5.18;;;34.30;51.20;;;;;;6214204;23;20319;-76
2023/07/14 07:59:39;;;;;;;11.38;5.25;;;34.10;51.20;;;;;;6215966;23;20000;-76
2023/07/14 08:02:06;;;;;;;12.73;5.30;;;34.00;51.80;;;;;;6216360;23;20013;-75
2023/07/14 08:04:33;;;;;;;26.10;17.42;;;34.00;52.20;;;;;;6189534;23;20009;-76
2023/07/14 08:06:58;;;;;;;17.88;8.95;;;34.00;52.20;;;;;;6215884;23;20008;-76
2023/07/14 08:09:24;;;;;;;12.05;5.50;;;33.80;52.50;;;;;;6216048;23;20000;-75
2023/07/14 08:11:57;;;;;;;16.35;5.47;;;33.80;52.60;;;;;;6216185;23;20496;-75
2023/07/14 08:14:23;;;;;;;10.63;5.18;;;33.80;52.70;;;;;;6216726;23;20016;-75
2023/07/14 08:16:49;;;;;;;14.38;5.70;;;33.80;52.60;;;;;;6216512;23;20374;-77
2023/07/14 08:19:15;;;;;;;11.93;5.63;;;33.80;52.80;;;;;;6217118;23;20004;-75
2023/07/14 08:21:41;;;;;;;13.07;4.80;;;33.80;52.80;;;;;;6216810;23;20048;-77
2023/07/14 08:24:08;;;;;;;14.05;5.40;;;33.90;52.90;;;;;;6216199;23;20334;-75
2023/07/14 08:26:35;;;;;;;18.60;5.57;;;34.00;53.70;;;;;;6216321;23;20011;-77
2023/07/14 08:29:03;;;;;;;14.40;5.38;;;34.00;53.10;;;;;;6217152;23;20351;-76
2023/07/14 08:31:29;;;;;;;12.48;5.00;;;33.90;53.20;;;;;;6215912;23;20110;-76
2023/07/14 08:33:54;;;;;;;16.45;5.97;;;33.80;53.30;;;;;;6215803;23;20103;-76
2023/07/14 08:36:20;;;;;;;11.82;5.47;;;33.70;53.40;;;;;;6215831;23;20020;-76
2023/07/14 08:38:46;;;;;;;13.52;6.18;;;33.70;53.50;;;;;;6215923;23;20071;-77
2023/07/14 08:41:27;;;;;;;11.45;5.68;;;33.70;53.60;;;;;;6215557;23;20005;-75
2023/07/14 08:44:05;;;;;;;17.13;5.38;;;33.50;52.40;;;;;;6215294;23;20315;-75
2023/07/14 08:47:09;;;;;;;18.42;5.93;;;33.20;53.40;;;;;;6215766;23;20040;-76
2023/07/14 08:49:47;;;;;;;14.07;5.90;;;33.20;52.90;;;;;;6215765;23;20303;-76
2023/07/14 08:52:24;;;;;;;13.43;5.68;;;33.20;54.50;;;;;;6216040;23;20005;-77
2023/07/14 08:55:19;;;;;;;16.65;5.57;;;33.20;53.00;;;;;;6216450;23;20322;-76
2023/07/14 08:57:54;;;;;;;17.10;5.72;;;33.20;53.00;;;;;;6215861;23;20015;-75
2023/07/14 09:00:32;;;;;;;15.40;5.90;;;33.20;53.20;;;;;;6215416;23;20055;-75
2023/07/14 09:03:16;;;;;;;17.88;5.60;;;33.20;54.40;;;;;;6216040;23;20008;-77
2023/07/14 09:05:54;;;;;;;14.13;5.30;;;33.10;54.70;;;;;;6215979;23;20011;-78
2023/07/14 09:08:28;;;;;;;11.75;5.10;;;33.10;54.60;;;;;;6215852;23;20076;-76
2023/07/14 09:11:34;;;;;;;13.82;5.03;;;33.10;54.70;;;;;;6215682;23;20000;-76
2023/07/14 09:14:23;;;;;;;13.75;5.05;;;33.10;53.20;;;;;;6189102;23;20015;-78
2023/07/14 09:17:18;;;;;;;17.40;5.50;;;33.20;54.20;;;;;;6214524;23;20052;-76
2023/07/14 09:20:06;;;;;;;8.90;4.55;;;33.20;52.80;;;;;;6162425;23;20092;-75
2023/07/14 09:23:08;;;;;;;13.77;4.78;;;33.20;52.70;;;;;;6215613;23;20009;-77
2023/07/14 09:25:40;;;;;;;22.70;5.30;;;33.30;54.10;;;;;;6215470;23;20088;-76
2023/07/14 09:28:20;;;;;;;16.08;5.82;;;33.30;52.90;;;;;;6215764;23;20000;-78
2023/07/14 09:30:47;;;;;;;13.75;5.30;;;33.30;54.30;;;;;;6215519;23;20012;-75
2023/07/14 09:33:16;;;;;;;15.48;5.47;;;33.30;54.20;;;;;;6216216;23;20098;-76
2023/07/14 09:35:45;;;;;;;15.50;4.55;;;33.30;54.10;;;;;;6218959;23;20040;-76
2023/07/14 09:38:26;;;;;;;18.30;5.93;;;33.30;54.60;;;;;;6216020;23;20000;-77
2023/07/14 09:40:58;;;;;;;11.73;4.75;;;33.30;52.70;;;;;;6214199;23;20004;-78
2023/07/14 09:43:24;;;;;;;12.15;5.07;;;33.30;54.00;;;;;;6215690;23;20028;-77
2023/07/14 09:45:54;;;;;;;12.40;5.78;;;33.30;54.00;;;;;;6215665;23;20004;-78
2023/07/14 09:48:26;;;;;;;14.65;5.05;;;33.30;54.50;;;;;;6218695;23;20006;-76
2023/07/14 09:51:10;;;;;;;14.98;4.88;;;33.30;54.60;;;;;;6222089;23;20334;-77
2023/07/14 09:53:38;;;;;;;14.02;4.88;;;33.30;54.80;;;;;;6216601;23;20004;-77
2023/07/14 09:56:10;;;;;;;13.88;5.38;;;33.30;54.80;;;;;;6188808;23;20020;-76
2023/07/14 09:58:35;;;;;;;10.02;5.05;;;33.30;53.70;;;;;;6215824;23;20004;-77
2023/07/14 10:01:12;;;;;;;20.58;5.25;;;33.30;54.70;;;;;;6215478;23;20075;-75
2023/07/14 10:03:48;;;;;;;12.45;5.43;;;33.40;54.80;;;;;;6215352;23;20000;-75
2023/07/14 10:06:21;;;;;;;15.98;6.10;;;33.40;54.80;;;;;;6215592;23;20000;-78
2023/07/14 10:08:52;;;;;;;13.90;5.28;;;33.40;53.70;;;;;;6215622;23;20450;-77
2023/07/14 10:11:47;;;;;;;9.57;5.10;;;33.50;54.70;;;;;;6215308;23;20446;-78
2023/07/14 10:14:25;;;;;;;14.95;5.20;;;33.50;53.60;;;;;;6215341;23;20455;-77
2023/07/14 10:16:53;;;;;;;18.27;4.97;;;33.50;54.40;;;;;;6215171;23;20013;-77
2023/07/14 10:19:20;;;;;;;15.27;5.53;;;33.50;54.70;;;;;;6215815;23;20023;-78
2023/07/14 10:21:57;;;;;;;13.23;5.93;;;33.50;54.50;;;;;;6214796;23;20334;-78
2023/07/14 10:24:24;;;;;;;14.23;5.45;;;33.60;54.40;;;;;;6215006;23;20031;-77
2023/07/14 10:26:57;;;;;;;13.45;5.40;;;33.60;54.60;;;;;;6215025;23;20106;-77
2023/07/14 10:29:25;;;;;;;15.65;5.07;;;33.70;54.50;;;;;;6215172;23;20055;-76
2023/07/14 10:32:05;;;;;;;17.30;5.72;;;33.70;54.40;;;;;;6214875;23;20096;-78
2023/07/14 10:34:55;;;;;;;15.90;5.50;;;33.70;54.50;;;;;;6214534;23;20003;-76
2023/07/14 10:37:37;;;;;;;12.18;5.30;;;33.80;53.40;;;;;;6216366;23;20020;-77
2023/07/14 10:40:14;;;;;;;16.37;5.20;;;33.80;53.30;;;;;;6216430;23;20004;-77
2023/07/14 10:43:04;;;;;;;12.57;5.28;;;33.80;54.20;;;;;;6214794;23;20008;-77
2023/07/14 10:45:32;;;;;;;13.77;6.05;;;33.80;54.10;;;;;;6214418;23;20349;-77
2023/07/14 10:48:11;;;;;;;16.23;4.75;;;33.90;54.20;;;;;;6214340;23;20017;-75
2023/07/14 10:50:42;;;;;;;15.98;4.80;;;33.90;54.00;;;;;;6214810;23;20075;-74
2023/07/14 10:53:13;;;;;;;12.82;5.22;;;33.90;54.00;;;;;;6214394;23;20379;-78
2023/07/14 10:55:42;;;;;;;22.38;11.93;;;34.00;54.10;;;;;;6214513;23;20419;-77
2023/07/14 10:58:17;;;;;;;21.50;10.25;;;34.00;54.00;;;;;;6214847;23;20008;-78
2023/07/14 11:00:51;;;;;;;13.18;5.10;;;34.00;52.90;;;;;;6214795;23;20004;-76
2023/07/14 11:03:28;;;;;;;14.43;5.03;;;34.00;53.90;;;;;;6214808;23;20002;-77
2023/07/14 11:06:09;;;;;;;13.63;5.57;;;34.00;53.00;;;;;;6214332;23;20007;-76
2023/07/14 11:08:35;;;;;;;15.23;4.93;;;34.00;53.80;;;;;;6214314;23;20000;-76
2023/07/14 11:11:39;;;;;;;16.27;5.75;;;34.10;53.80;;;;;;6187601;23;20011;-77
2023/07/14 11:14:05;;;;;;;;;;;34.10;52.80;;;;;;6214809;23;20067;-77
2023/07/14 11:16:49;;;;;;;16.50;4.97;;;34.20;53.80;;;;;;6214766;23;20340;-76
2023/07/14 11:19:29;;;;;;;12.18;4.78;;;34.20;52.90;;;;;;6222566;23;20008;-78
2023/07/14 11:22:11;;;;;;;14.27;5.65;;;34.30;54.00;;;;;;6215596;23;20087;-76
2023/07/14 11:25:09;;;;;;;14.88;5.15;;;34.40;52.90;;;;;;6214720;23;20007;-76
2023/07/14 11:28:01;;;;;;;10.93;4.80;;;34.50;53.70;;;;;;6214488;23;20004;-74
2023/07/14 11:30:36;;;;;;;14.38;5.15;;;34.50;52.70;;;;;;6214430;23;20028;-76
2023/07/14 11:33:52;;;;;;;16.08;5.20;;;34.60;53.70;;;;;;6214783;23;20005;-78
2023/07/14 11:36:28;;;;;;;11.35;4.70;;;34.70;52.60;;;;;;6093678;23;20018;-76
2023/07/14 11:39:15;;;;;;;17.52;5.45;;;34.70;53.60;;;;;;6198351;23;20043;-78
2023/07/14 11:41:42;;;;;;;16.75;5.40;;;34.80;52.50;;;;;;6214960;23;20008;-78
2023/07/14 11:44:21;;;;;;;15.85;5.50;;;34.80;53.40;;;;;;6215079;23;20007;-78
2023/07/14 11:46:49;;;;;;;15.40;5.22;;;34.80;53.30;;;;;;6214410;23;20004;-78
2023/07/14 11:49:33;;;;;;;17.77;5.30;;;34.80;53.40;;;;;;6214420;23;20395;-79
2023/07/14 11:52:10;;;;;;;18.33;5.30;;;34.90;53.50;;;;;;6214792;23;20107;-77
2023/07/14 11:54:42;;;;;;;14.60;5.45;;;34.90;53.30;;;;;;6214572;23;20061;-78
2023/07/14 11:57:16;;;;;;;11.43;4.53;;;35.00;53.20;;;;;;6214211;23;20017;-78
2023/07/14 12:00:05;;;;;;;19.42;5.32;;;34.90;53.20;;;;;;6214301;23;20288;-78
2023/07/14 12:02:43;;;;;;;11.95;4.90;;;34.90;53.20;;;;;;6214458;23;20009;-77
2023/07/14 12:05:15;;;;;;;15.05;5.47;;;35.00;53.20;;;;;;6214392;23;19997;-77
2023/07/14 12:08:05;;;;;;;20.17;6.22;;;35.00;53.20;;;;;;6214376;23;20013;-74
2023/07/14 12:10:43;;;;;;;15.25;5.95;;;35.00;52.60;;;;;;6214438;23;20051;-76
2023/07/14 12:13:28;;;;;;;17.75;5.97;;;35.10;52.90;;;;;;6214341;23;20001;-78
2023/07/14 12:15:56;;;;;;;14.25;5.53;;;35.10;52.90;;;;;;6214375;23;20095;-78
2023/07/14 12:18:28;;;;;;;17.00;5.78;;;35.10;53.90;;;;;;6214898;23;19997;-79
2023/07/14 12:21:18;;;;;;;19.60;5.88;;;35.20;53.20;;;;;;6214540;23;20004;-78
2023/07/14 12:23:56;;;;;;;16.52;5.15;;;35.20;53.90;;;;;;6214600;23;20001;-77
2023/07/14 12:26:39;;;;;;;12.38;5.00;;;35.20;54.40;;;;;;6214602;23;20031;-78
2023/07/14 12:29:17;;;;;;;14.25;4.70;;;35.30;54.80;;;;;;6214901;23;20346;-77
2023/07/14 12:31:53;;;;;;;11.82;5.03;;;35.40;54.90;;;;;;6214249;23;20450;-77
2023/07/14 12:34:22;;;;;;;13.20;5.40;;;35.40;55.10;;;;;;6214245;23;20028;-76
2023/07/14 12:36:48;;;;;;;18.75;5.45;;;35.40;55.10;;;;;;6213991;23;20020;-77
2023/07/14 12:39:13;;;;;;;15.30;5.15;;;35.40;55.30;;;;;;6214349;23;20177;-77
2023/07/14 12:41:43;;;;;;;17.83;5.32;;;35.30;55.30;;;;;;6214411;23;20308;-78
2023/07/14 12:44:35;;;;;;;14.20;4.80;;;35.20;55.50;;;;;;6214999;23;20004;-78
2023/07/14 12:47:02;;;;;;;9.43;4.38;;;35.20;55.60;;;;;;6211264;23;20032;-77
2023/07/14 12:49:36;;;;;;;10.93;5.15;;;35.20;55.50;;;;;;6220028;23;20424;-77
2023/07/14 12:52:13;;;;;;;12.90;5.15;;;35.20;55.60;;;;;;6217004;23;20013;-78
2023/07/14 12:54:43;;;;;;;15.25;5.85;;;35.30;55.60;;;;;;6215942;23;20000;-77
2023/07/14 12:57:12;;;;;;;14.23;5.00;;;35.20;55.90;;;;;;6189088;23;20023;-78